This is the latest recevied weather packets stored in our database for station/object OK1ZDJ-13. If no packets are shown the sender has not sent any weather packets the latest 10 day(s).
| Time | Temp. | Humidity | Pressure | Rain* | Wind** | Luminosity | Snow |
|---|---|---|---|---|---|---|---|
| 1777762072 | 7.78° C | 71% | 1020 hPa | - | - | - | - |
| 1777761472 | 7.78° C | 70% | 1020 hPa | - | - | - | - |
| 1777760272 | 8.33° C | 70% | 1020.1 hPa | - | - | - | - |
| 1777759672 | 8.33° C | 68% | 1020.1 hPa | - | - | - | - |
| 1777759072 | 8.89° C | 66% | 1020 hPa | - | - | - | - |
| 1777758472 | 8.89° C | 63% | 1020.1 hPa | - | - | - | - |
| 1777757876 | 9.44° C | 61% | 1019.9 hPa | - | - | - | - |
| 1777757270 | 10° C | 64% | 1019.9 hPa | - | - | - | - |
| 1777756670 | 10° C | 63% | 1019.9 hPa | - | - | - | - |
| 1777756070 | 10.56° C | 62% | 1020 hPa | - | - | - | - |
| 1777755470 | 10.56° C | 62% | 1019.9 hPa | - | - | - | - |
| 1777754871 | 10.56° C | 61% | 1020 hPa | - | - | - | - |
| 1777754270 | 11.11° C | 60% | 1020 hPa | - | - | - | - |
| 1777753670 | 11.11° C | 59% | 1020.1 hPa | - | - | - | - |
| 1777753070 | 11.67° C | 58% | 1020.1 hPa | - | - | - | - |
| 1777751270 | 13.33° C | 53% | 1020.1 hPa | - | - | - | - |
| 1777750670 | 13.89° C | 52% | 1020.1 hPa | - | - | - | - |
| 1777750070 | 14.44° C | 49% | 1020.1 hPa | - | - | - | - |
| 1777749470 | 14.44° C | 49% | 1020.1 hPa | - | - | - | - |
| 1777748871 | 15° C | 48% | 1020.2 hPa | - | - | - | - |
| 1777747671 | 16.11° C | 45% | 1020.1 hPa | - | - | - | - |
| 1777747070 | 16.67° C | 43% | 1020 hPa | - | - | - | - |
| 1777746470 | 17.78° C | 42% | 1020 hPa | - | - | - | - |
| 1777745870 | 18.89° C | 41% | 1019.8 hPa | - | - | - | - |
| 1777745270 | 20.56° C | 36% | 1019.8 hPa | - | - | - | - |
* Rain since midnight (hover to see other rain measurements)
** Current wind speed in m/s (hover to see current wind gust speed)